Kumanomaru — JI3406 — position and weather

sailwx.info

Track history (hours):
 
Tides and Currents Weather Stations Pressure Air Temp Water Temp Dewpoint Dewpoint Depression Visibility Wind Speed Wind Dir Waves Ship Positions

Kumanomaru

Last reported at 2018-Jun-15 05:49 UTC. Time now 2018-Jun-20 18:48 UTC.
Position N 34°36' E 135°04'.

Length 28 m.

Type: Towing. MMSI: 431400837.

Date/timePositionNaut miles runAvg speedWind from/ knotsBaromVisibWave heightAir tempDewpointWater temp
2018-Jun-15 05:49N 34°36' E 135°04'2 6.2
2018-Jun-15 05:27N 34°35' E 135°06'4 9.2
2018-Jun-15 04:59N 34°33' E 135°11'  
2018-Jun-10 23:17N 34°32' E 135°12'2 7.7
2018-Jun-10 22:59N 34°33' E 135°10'21 5.4
2018-Jun-10 19:08N 34°31' E 134°45'1 6.5
2018-Jun-10 18:59N 34°31' E 134°44'5 6.6
2018-Jun-10 18:16N 34°29' E 134°38'2 6.1
2018-Jun-10 17:56N 34°28' E 134°36'  
Track history (hours):
 
Tides and Currents Weather Stations Pressure Air Temp Water Temp Dewpoint Dewpoint Depression Visibility Wind Speed Wind Dir Waves Ship Positions

Kumanomaru

Last reported at 2018-Jun-15 05:49 UTC. Time now 2018-Jun-20 18:48 UTC.
Position N 34°36' E 135°04'.

Length 28 m.

Type: Towing. MMSI: 431400837.

Date/timePositionNaut miles runAvg speedWind from/ knotsBaromVisibWave heightAir tempDewpointWater temp
2018-Jun-15 05:49N 34°36' E 135°04'2 6.2
2018-Jun-15 05:27N 34°35' E 135°06'4 9.2
2018-Jun-15 04:59N 34°33' E 135°11'  
2018-Jun-10 23:17N 34°32' E 135°12'2 7.7
2018-Jun-10 22:59N 34°33' E 135°10'21 5.4
2018-Jun-10 19:08N 34°31' E 134°45'1 6.5
2018-Jun-10 18:59N 34°31' E 134°44'5 6.6
2018-Jun-10 18:16N 34°29' E 134°38'2 6.1
2018-Jun-10 17:56N 34°28' E 134°36'  

Dump ship's entire track history